Hong Kong, Hong Kong

3:25 AM HKT on September 27, 2016 (GMT +0800)
Tai O | | Change Station

Elev 20 ft 22.25 °N, 113.87 °E | Updated 11 seconds ago

Partly Cloudy
Partly Cloudy
80.5 °F
Feels Like 88 °F
N
0.0
Wind Variable Wind from SSW
Gusts 0.0 mph

Today
High -- | Low -- °F
--% Chance of Precip.
Yesterday
High -- | Low -- °F
Precip. -- in
Pressure 29.65 in
Visibility 3.7 miles
Clouds Few 3000 ft
Heat Index 88 °F
Dew Point 78 °F
Humidity 93%
Rainfall 0.00 in
Snow Depth Not available.
6:14 AM 6:15 PM
Waning Crescent, 17% visible
METAR VHHH 261900Z 20002KT 6000 FEW030 29/25 Q1004 NOSIG
Pressure 29.65 in
Visibility 3.7 miles
Clouds Few 3000 ft
Heat Index 88 °F
Dew Point 78 °F
Humidity 93%
Rainfall 0.00 in
Snow Depth Not available.
6:14 AM 6:15 PM
Waning Crescent, 17% visible
METAR VHHH 261900Z 20002KT 6000 FEW030 29/25 Q1004 NOSIG

10-Day Weather Forecast

No radar image for this location.
×

Almanac

Astronomy

Sep. 27, 2016 Rise Set
Actual Time
Civil Twilight
Nautical Twilight
Astronomical Twilight
Moon
Length of Visible Light
Length of Day
Tomorrow will be .
, % of the Moon is Illuminated

Today's Extremes

Country Highs Country Lows

Community

WunderPhotos

Upload Photos

1,941,954 photos uploaded!

WunderBlog® & News

Nearby

Air Quality

  Air Quality AQ Index Pollutant
Not available.

Snow Depth

Station Depth Elevation

Earthquake Activity

City Distance Mag. Time & Date
Minimum magnitude displayed is 2.5.

Coastal Water Temperatures

Place Temperature

Stations

Nearby Weather Stations

Station Location Temp. Windchill Dew Point Humidity Wind Precip. Elev Updated Type